Terminal Aerodrome Forecast
Issued by NWS Lake Charles, LA

Home | Current Version | Previous Version | Text Only | Print | Product List | Glossary On
Versions: 1 2 3 4 5 6 7 8 9 10 11 12 13 14 15 16 17 18 19 20 21 22 23 24 25 26 27 28
000
FTUS44 KLCH 220700 AAA
TAFLFT
TAF AMD
KLFT 220732Z 2208/2306 00000KT 3SM BR OVC021
     FM220800 00000KT 3SM BR SCT005 OVC018
     FM221300 17003KT 2SM BR SCT002 OVC005
      TEMPO 2213/2214 1SM BR OVC002
     FM221700 21014KT P6SM SCT012 OVC019
     FM222300 22008KT 6SM BR OVC012
     FM230300 23007KT 1SM BR SCT002 OVC004=

USA.gov is the U.S. government's official web portal to all federal, state and local government web resources and services.